Time;durP1;ratioP1;P1;durP2;ratioP2;P2;SDS_P1;SDS_P2;PMS_P1;PMS_P2;Temp;Humidity;BMP_temperature;BMP_pressure;BME280_temperature;BME280_humidity;BME280_pressure;Samples;Min_cycle;Max_cycle;Signal;HPM_P1;HPM_P2
2023/05/06 00:00:39;;;;;;;0.10;0.10;;;14.30;99.90;;;;;;5075064;28;20060;-76
2023/05/06 00:03:05;;;;;;;0.10;0.10;;;14.30;99.90;;;;;;5074971;28;20459;-75
2023/05/06 00:05:31;;;;;;;0.10;0.10;;;14.20;99.90;;;;;;5075219;28;20024;-75
2023/05/06 00:07:57;;;;;;;0.10;0.10;;;13.90;99.90;;;;;;5075370;28;20420;-74
2023/05/06 00:10:22;;;;;;;0.00;0.00;;;13.90;99.90;;;;;;5074994;28;20025;-74
2023/05/06 00:12:48;;;;;;;0.08;0.08;;;13.90;99.90;;;;;;5059776;28;20032;-70
2023/05/06 00:15:14;;;;;;;0.45;0.45;;;13.90;99.90;;;;;;5077590;28;20032;-71
2023/05/06 00:17:40;;;;;;;0.08;0.08;;;13.80;99.90;;;;;;5058815;28;20033;-76
2023/05/06 00:20:08;;;;;;;0.10;0.10;;;13.90;99.90;;;;;;5074941;28;20043;-76
2023/05/06 00:22:34;;;;;;;0.10;0.10;;;14.00;99.90;;;;;;5074992;28;20028;-76
2023/05/06 00:24:59;;;;;;;0.10;0.10;;;13.90;99.90;;;;;;5074821;28;20417;-76
2023/05/06 00:27:25;;;;;;;0.10;0.10;;;13.70;99.90;;;;;;5074547;28;20028;-75
2023/05/06 00:29:51;;;;;;;0.10;0.10;;;13.60;99.90;;;;;;5074552;28;20024;-75
2023/05/06 00:32:17;;;;;;;0.10;0.10;;;13.60;99.90;;;;;;5056754;28;20385;-76
2023/05/06 00:34:43;;;;;;;0.08;0.08;;;13.60;99.90;;;;;;5056740;28;20032;-76
2023/05/06 00:37:08;;;;;;;0.00;0.00;;;13.70;99.90;;;;;;5074382;28;20025;-76
2023/05/06 00:39:34;;;;;;;0.10;0.10;;;13.70;99.90;;;;;;5044986;28;20123;-76
2023/05/06 00:42:01;;;;;;;0.10;0.10;;;13.70;99.90;;;;;;5073396;28;20055;-69
2023/05/06 00:44:27;;;;;;;0.10;0.10;;;13.80;99.90;;;;;;5073960;28;20504;-72
2023/05/06 00:46:54;;;;;;;0.10;0.10;;;13.80;99.90;;;;;;5074412;28;20036;-70
2023/05/06 00:49:21;;;;;;;0.10;0.10;;;13.70;99.90;;;;;;5073263;28;20020;-69
2023/05/06 00:51:47;;;;;;;0.13;0.13;;;13.70;99.90;;;;;;5072734;28;20049;-71
2023/05/06 00:54:13;;;;;;;0.10;0.10;;;13.50;99.90;;;;;;5072971;28;20111;-70
2023/05/06 00:56:40;;;;;;;0.10;0.10;;;13.60;99.90;;;;;;5074541;28;20398;-71
2023/05/06 00:59:06;;;;;;;0.32;0.32;;;13.50;99.90;;;;;;5070117;28;20060;-70
2023/05/06 01:01:32;;;;;;;0.10;0.10;;;13.50;99.90;;;;;;5052627;28;20025;-69
2023/05/06 01:03:59;;;;;;;0.10;0.10;;;13.50;99.90;;;;;;5053881;28;20013;-70
2023/05/06 01:06:31;;;;;;;0.10;0.10;;;13.30;99.90;;;;;;5049304;28;20021;-70
2023/05/06 01:09:05;;;;;;;0.60;0.47;;;13.40;99.90;;;;;;5048395;28;20037;-73
2023/05/06 01:11:34;;;;;;;0.10;0.10;;;13.20;99.90;;;;;;5053581;28;20021;-70
2023/05/06 01:14:13;;;;;;;0.10;0.10;;;13.20;99.90;;;;;;5053951;28;20159;-71
2023/05/06 01:16:40;;;;;;;0.90;0.75;;;13.40;99.90;;;;;;5053473;28;20037;-71
2023/05/06 01:19:14;;;;;;;0.10;0.10;;;13.30;99.90;;;;;;5049015;28;20037;-71
2023/05/06 01:21:42;;;;;;;0.10;0.10;;;13.30;99.90;;;;;;5052477;28;20037;-71
2023/05/06 01:24:08;;;;;;;0.10;0.10;;;13.10;99.90;;;;;;5052373;28;20430;-70
2023/05/06 01:26:34;;;;;;;0.10;0.10;;;13.10;99.90;;;;;;5053387;28;20095;-70
2023/05/06 01:29:01;;;;;;;0.08;0.08;;;13.20;99.90;;;;;;5032317;28;20031;-71
2023/05/06 01:31:36;;;;;;;0.10;0.10;;;13.40;99.90;;;;;;5043607;28;20094;-70
2023/05/06 01:34:13;;;;;;;0.47;0.47;;;13.40;99.90;;;;;;5053567;28;20049;-70
2023/05/06 01:37:14;;;;;;;0.10;0.10;;;13.10;99.90;;;;;;5048898;28;20083;-70
2023/05/06 01:39:42;;;;;;;2.53;1.55;;;13.10;99.90;;;;;;5053000;28;20033;-70
2023/05/06 01:42:09;;;;;;;0.03;0.03;;;13.10;99.90;;;;;;5053186;28;20424;-70
2023/05/06 01:44:38;;;;;;;0.10;0.10;;;13.10;99.90;;;;;;5032242;28;20024;-70
2023/05/06 01:47:06;;;;;;;0.10;0.10;;;13.00;99.90;;;;;;5041133;28;20355;-71
2023/05/06 01:49:32;;;;;;;0.10;0.10;;;13.10;99.90;;;;;;5030753;28;20044;-71
2023/05/06 01:51:58;;;;;;;0.10;0.10;;;13.20;99.90;;;;;;5044023;28;20484;-71
2023/05/06 01:54:24;;;;;;;0.10;0.10;;;13.30;99.90;;;;;;5052948;28;20124;-70
2023/05/06 01:56:50;;;;;;;0.00;0.00;;;13.30;99.90;;;;;;5031627;28;20028;-70
2023/05/06 01:59:15;;;;;;;0.10;0.10;;;13.30;99.90;;;;;;5029866;28;20064;-70
2023/05/06 02:01:41;;;;;;;0.10;0.10;;;13.30;99.90;;;;;;5053120;28;20029;-70
2023/05/06 02:04:07;;;;;;;0.30;0.30;;;13.30;99.90;;;;;;5031871;28;20095;-72
2023/05/06 02:06:33;;;;;;;0.10;0.10;;;13.30;99.90;;;;;;5033885;28;20048;-71
2023/05/06 02:08:59;;;;;;;0.10;0.10;;;13.10;99.90;;;;;;5031468;28;20102;-70
2023/05/06 02:11:26;;;;;;;0.10;0.10;;;13.00;99.90;;;;;;5030782;28;20481;-70
2023/05/06 02:13:58;;;;;;;0.10;0.10;;;13.10;99.90;;;;;;5031781;28;20025;-70
2023/05/06 02:16:27;;;;;;;0.10;0.10;;;13.10;99.90;;;;;;5029720;28;20167;-71
2023/05/06 02:18:54;;;;;;;0.10;0.10;;;13.20;99.90;;;;;;5052679;28;20036;-72
2023/05/06 02:21:20;;;;;;;0.28;0.28;;;13.30;99.90;;;;;;5031350;28;20033;-70
2023/05/06 02:23:45;;;;;;;0.10;0.10;;;13.10;99.90;;;;;;5034386;28;20404;-75
2023/05/06 02:26:11;;;;;;;0.10;0.10;;;13.10;99.90;;;;;;5031328;28;20029;-71
2023/05/06 02:28:37;;;;;;;0.10;0.10;;;13.10;99.90;;;;;;5049995;28;20535;-70
2023/05/06 02:31:03;;;;;;;0.10;0.10;;;13.10;99.90;;;;;;5031506;28;20485;-70
2023/05/06 02:33:28;;;;;;;0.10;0.10;;;13.20;99.90;;;;;;5030067;28;20037;-72
2023/05/06 02:35:54;;;;;;;0.10;0.10;;;13.20;99.90;;;;;;5031569;28;20017;-76
2023/05/06 02:38:20;;;;;;;0.10;0.10;;;13.20;99.90;;;;;;5045804;28;20029;-75
2023/05/06 02:40:46;;;;;;;0.10;0.10;;;13.10;99.90;;;;;;5049048;28;20029;-74
2023/05/06 02:43:11;;;;;;;0.10;0.10;;;13.10;99.90;;;;;;5052547;28;20022;-76
2023/05/06 02:45:38;;;;;;;0.35;0.35;;;13.00;99.90;;;;;;5052425;28;20482;-76
2023/05/06 02:48:04;;;;;;;0.10;0.10;;;12.90;99.90;;;;;;5047910;28;20029;-71
2023/05/06 02:50:29;;;;;;;0.10;0.10;;;12.80;99.90;;;;;;5050164;28;20100;-73
2023/05/06 02:52:55;;;;;;;0.05;0.05;;;12.50;99.90;;;;;;5055987;28;20125;-72
2023/05/06 02:55:21;;;;;;;0.10;0.10;;;12.30;99.90;;;;;;5052056;28;20028;-74
2023/05/06 02:57:47;;;;;;;0.10;0.10;;;12.30;99.90;;;;;;5055919;28;20029;-74
2023/05/06 03:00:14;;;;;;;0.10;0.10;;;12.30;99.90;;;;;;5056298;28;20037;-75
2023/05/06 03:02:40;;;;;;;0.10;0.10;;;12.40;99.90;;;;;;5052139;28;20029;-70
2023/05/06 03:05:06;;;;;;;0.10;0.10;;;12.40;99.90;;;;;;5055047;28;20032;-70
2023/05/06 03:07:35;;;;;;;0.10;0.10;;;12.50;99.90;;;;;;5056047;28;20017;-72
2023/05/06 03:10:00;;;;;;;0.10;0.10;;;12.50;99.90;;;;;;5051580;28;20106;-71
2023/05/06 03:12:29;;;;;;;0.10;0.10;;;12.40;99.90;;;;;;5054964;28;20478;-70
2023/05/06 03:14:55;;;;;;;0.10;0.10;;;12.40;99.90;;;;;;5054258;28;20030;-74
2023/05/06 03:17:21;;;;;;;0.13;0.13;;;12.60;99.90;;;;;;5051395;28;20466;-72
2023/05/06 03:19:49;;;;;;;0.10;0.10;;;12.50;99.90;;;;;;5046574;28;20036;-72
2023/05/06 03:22:15;;;;;;;0.10;0.10;;;12.50;99.90;;;;;;5034839;28;20442;-69
2023/05/06 03:24:44;;;;;;;0.10;0.10;;;12.50;99.90;;;;;;5048141;28;20021;-72
2023/05/06 03:27:10;;;;;;;0.10;0.10;;;12.60;99.90;;;;;;5051303;28;20029;-70
2023/05/06 03:29:36;;;;;;;0.10;0.10;;;12.70;99.90;;;;;;5042683;28;20385;-71
2023/05/06 03:32:03;;;;;;;0.05;0.05;;;12.90;99.90;;;;;;5049095;28;20377;-70
2023/05/06 03:34:31;;;;;;;0.10;0.10;;;12.80;99.90;;;;;;5045850;28;20100;-71
2023/05/06 03:36:59;;;;;;;0.10;0.10;;;12.70;99.90;;;;;;5053043;28;20029;-71
2023/05/06 03:39:26;;;;;;;0.10;0.10;;;12.70;99.90;;;;;;5050818;28;20040;-70
2023/05/06 03:41:52;;;;;;;0.10;0.10;;;12.50;99.90;;;;;;5054403;28;20029;-70
2023/05/06 03:44:17;;;;;;;0.10;0.10;;;12.30;99.90;;;;;;5055594;28;20021;-70
2023/05/06 03:46:44;;;;;;;0.10;0.10;;;12.30;99.90;;;;;;5055778;28;20116;-71
2023/05/06 03:49:10;;;;;;;0.10;0.10;;;12.30;99.90;;;;;;5050528;28;20024;-72
2023/05/06 03:51:36;;;;;;;0.10;0.10;;;12.30;99.90;;;;;;5053978;28;20067;-71
2023/05/06 03:54:03;;;;;;;0.10;0.10;;;12.40;99.90;;;;;;5053539;28;20025;-70
2023/05/06 03:56:31;;;;;;;0.10;0.10;;;12.30;99.90;;;;;;5034606;28;20034;-70
2023/05/06 03:58:57;;;;;;;0.10;0.10;;;12.10;99.90;;;;;;5053804;28;20024;-71
2023/05/06 04:01:25;;;;;;;0.10;0.10;;;12.20;99.90;;;;;;5033664;28;20033;-71
2023/05/06 04:03:53;;;;;;;0.10;0.10;;;12.20;99.90;;;;;;5046937;28;20036;-70
2023/05/06 04:06:19;;;;;;;0.08;0.08;;;12.20;99.90;;;;;;5049243;28;20385;-70
2023/05/06 04:08:45;;;;;;;0.10;0.10;;;12.20;99.90;;;;;;5045247;28;20028;-70
2023/05/06 04:11:10;;;;;;;0.10;0.10;;;12.20;99.90;;;;;;5033653;28;20132;-70
2023/05/06 04:13:36;;;;;;;0.10;0.10;;;12.10;99.90;;;;;;5053785;28;20043;-70
2023/05/06 04:16:08;;;;;;;0.10;0.10;;;12.20;99.90;;;;;;5050265;28;20025;-71
2023/05/06 04:18:38;;;;;;;0.10;0.10;;;12.30;99.90;;;;;;5053291;28;20108;-71
2023/05/06 04:21:10;;;;;;;0.10;0.10;;;12.40;99.90;;;;;;5049947;28;20042;-70
2023/05/06 04:23:38;;;;;;;0.03;0.03;;;12.50;99.90;;;;;;5065174;28;20079;-69
2023/05/06 04:26:04;;;;;;;0.10;0.10;;;12.50;99.90;;;;;;5066954;28;20091;-70
2023/05/06 04:28:32;;;;;;;0.50;0.30;;;12.50;99.90;;;;;;5083603;28;20021;-70
2023/05/06 04:30:58;;;;;;;0.10;0.10;;;12.40;99.90;;;;;;5050026;28;20075;-70
2023/05/06 04:33:33;;;;;;;0.10;0.10;;;12.50;99.90;;;;;;5049263;28;20397;-70
2023/05/06 04:36:02;;;;;;;0.10;0.10;;;12.50;99.90;;;;;;5049719;28;20033;-70
2023/05/06 04:38:30;;;;;;;0.10;0.10;;;12.50;99.90;;;;;;5053137;28;20033;-71
2023/05/06 04:40:57;;;;;;;0.30;0.30;;;12.40;99.90;;;;;;5049652;28;20386;-71
2023/05/06 04:43:25;;;;;;;0.10;0.10;;;12.30;99.90;;;;;;5046141;28;20032;-70
2023/05/06 04:45:56;;;;;;;0.10;0.10;;;12.30;99.90;;;;;;5049713;28;20030;-71
2023/05/06 04:48:26;;;;;;;0.10;0.10;;;12.30;99.90;;;;;;5046926;28;20021;-70
2023/05/06 04:50:55;;;;;;;0.20;0.20;;;12.50;99.90;;;;;;5049152;28;20025;-74
2023/05/06 04:53:22;;;;;;;0.08;0.08;;;12.40;99.90;;;;;;5052746;28;20037;-73
2023/05/06 04:55:47;;;;;;;0.10;0.10;;;12.30;99.90;;;;;;5052601;28;20025;-75
2023/05/06 04:58:14;;;;;;;0.10;0.10;;;12.40;99.90;;;;;;5049770;28;20033;-75
2023/05/06 05:00:40;;;;;;;0.10;0.10;;;12.70;99.90;;;;;;5052289;28;20036;-74
2023/05/06 05:03:06;;;;;;;0.10;0.10;;;12.50;99.90;;;;;;5054270;28;20048;-73
2023/05/06 05:05:35;;;;;;;0.30;0.30;;;12.70;99.90;;;;;;5049269;28;20033;-74
2023/05/06 05:08:03;;;;;;;1.40;1.30;;;12.90;99.90;;;;;;5038700;28;20473;-75
2023/05/06 05:10:33;;;;;;;0.20;0.20;;;12.90;99.90;;;;;;5049343;28;20040;-75
2023/05/06 05:12:58;;;;;;;0.10;0.10;;;12.80;99.90;;;;;;5051630;28;20394;-73
2023/05/06 05:15:24;;;;;;;0.52;0.45;;;12.80;99.90;;;;;;5049455;28;20029;-75
2023/05/06 05:17:50;;;;;;;0.10;0.10;;;12.70;99.90;;;;;;5028923;28;20025;-74
2023/05/06 05:20:17;;;;;;;0.28;0.28;;;12.80;99.90;;;;;;5048774;28;20116;-75
2023/05/06 05:22:43;;;;;;;0.10;0.10;;;12.80;99.90;;;;;;5052096;28;20460;-75
2023/05/06 05:25:09;;;;;;;0.10;0.10;;;12.70;99.90;;;;;;5051904;28;20051;-75
2023/05/06 05:27:35;;;;;;;0.10;0.10;;;12.80;99.90;;;;;;5053700;28;20021;-76
2023/05/06 05:30:01;;;;;;;15.82;2.28;;;13.00;99.90;;;;;;5053729;28;20513;-75
2023/05/06 05:32:28;;;;;;;0.32;0.32;;;13.00;99.90;;;;;;5048630;28;20040;-76
2023/05/06 05:34:55;;;;;;;0.10;0.10;;;13.00;99.90;;;;;;5052261;28;20116;-75
2023/05/06 05:37:21;;;;;;;0.15;0.15;;;13.00;99.90;;;;;;5048626;28;20044;-75
2023/05/06 05:39:47;;;;;;;0.10;0.10;;;13.00;99.90;;;;;;5051958;28;20037;-75
2023/05/06 05:42:14;;;;;;;0.20;0.20;;;13.10;99.90;;;;;;5048736;28;20017;-74
2023/05/06 05:44:43;;;;;;;0.52;0.50;;;13.00;99.90;;;;;;5051970;28;20115;-73
2023/05/06 05:47:09;;;;;;;0.63;0.63;;;13.20;99.90;;;;;;5050310;28;20025;-75
2023/05/06 05:49:36;;;;;;;0.10;0.10;;;13.40;99.90;;;;;;5051767;28;20025;-75
2023/05/06 05:52:02;;;;;;;0.10;0.10;;;13.60;99.90;;;;;;5048744;28;20078;-75
2023/05/06 05:54:31;;;;;;;0.10;0.10;;;13.60;99.90;;;;;;5032607;28;20029;-70
2023/05/06 05:56:56;;;;;;;0.30;0.30;;;13.50;99.90;;;;;;5044331;28;20539;-69
2023/05/06 05:59:23;;;;;;;0.10;0.10;;;13.50;99.90;;;;;;5052931;28;20486;-70
2023/05/06 06:01:52;;;;;;;0.57;0.50;;;13.60;99.90;;;;;;5048150;28;20228;-70
2023/05/06 06:04:18;;;;;;;0.20;0.20;;;13.60;99.90;;;;;;5082443;28;20533;-70
2023/05/06 06:06:45;;;;;;;0.85;0.85;;;13.70;99.90;;;;;;5048450;28;20456;-70
2023/05/06 06:09:11;;;;;;;0.30;0.30;;;13.60;99.90;;;;;;5043648;28;20057;-73
2023/05/06 06:11:38;;;;;;;0.10;0.10;;;13.60;99.90;;;;;;5045813;28;20025;-69
2023/05/06 06:14:05;;;;;;;2.30;1.20;;;13.60;99.90;;;;;;5035437;28;20379;-70
2023/05/06 06:16:31;;;;;;;0.22;0.22;;;13.60;99.90;;;;;;5049693;28;20029;-69
2023/05/06 06:18:58;;;;;;;0.57;0.57;;;13.70;99.90;;;;;;5048379;28;20035;-70
2023/05/06 06:21:24;;;;;;;0.10;0.10;;;14.00;99.90;;;;;;5045775;28;20072;-75
2023/05/06 06:23:51;;;;;;;0.10;0.10;;;14.00;99.90;;;;;;5051273;28;20488;-70
2023/05/06 06:26:18;;;;;;;0.30;0.30;;;14.20;99.90;;;;;;5048079;28;20030;-70
2023/05/06 06:28:44;;;;;;;1.65;1.25;;;14.20;99.90;;;;;;5050899;28;20359;-70
2023/05/06 06:31:10;;;;;;;0.20;0.20;;;14.30;99.90;;;;;;5047949;28;20029;-69
2023/05/06 06:33:36;;;;;;;1.00;0.40;;;14.30;99.90;;;;;;5048935;28;20053;-71
2023/05/06 06:36:01;;;;;;;0.10;0.10;;;14.40;99.90;;;;;;5052703;28;20061;-69
2023/05/06 06:38:27;;;;;;;0.65;0.50;;;14.30;99.90;;;;;;5048205;28;20406;-70
2023/05/06 06:40:53;;;;;;;0.30;0.30;;;14.50;99.90;;;;;;5052468;28;20037;-69
2023/05/06 06:43:19;;;;;;;0.75;0.75;;;14.60;99.90;;;;;;5031379;28;20126;-70
2023/05/06 06:45:55;;;;;;;1.92;0.80;;;14.60;99.90;;;;;;5050506;28;20024;-70
2023/05/06 06:48:20;;;;;;;3.72;0.98;;;14.80;99.90;;;;;;5052499;28;20470;-69
2023/05/06 06:50:46;;;;;;;1.02;0.93;;;14.50;99.90;;;;;;5052505;28;20039;-70
2023/05/06 06:53:12;;;;;;;0.20;0.20;;;14.70;99.90;;;;;;5052303;28;20025;-70
2023/05/06 06:55:41;;;;;;;1.02;0.93;;;14.90;99.90;;;;;;5052465;28;20446;-70
2023/05/06 06:58:06;;;;;;;0.10;0.10;;;14.90;99.90;;;;;;5052249;28;20078;-70
2023/05/06 07:00:32;;;;;;;0.10;0.10;;;15.30;99.90;;;;;;5034181;28;20428;-71
2023/05/06 07:02:58;;;;;;;0.98;0.73;;;15.30;99.90;;;;;;5052098;28;20048;-69
2023/05/06 07:05:25;;;;;;;0.20;0.20;;;15.20;99.90;;;;;;5052410;28;20068;-70
2023/05/06 07:07:51;;;;;;;0.65;0.65;;;15.50;99.90;;;;;;5034531;28;20382;-70
2023/05/06 07:10:17;;;;;;;0.10;0.10;;;15.60;99.90;;;;;;5052186;28;20033;-70
2023/05/06 07:12:43;;;;;;;0.50;0.50;;;15.80;99.90;;;;;;5052287;28;20436;-71
2023/05/06 07:15:09;;;;;;;3.40;1.95;;;16.00;99.90;;;;;;5051634;28;20017;-75
2023/05/06 07:17:35;;;;;;;0.30;0.30;;;16.00;99.90;;;;;;5014625;28;20030;-74
2023/05/06 07:20:01;;;;;;;1.52;0.88;;;15.90;99.90;;;;;;5048849;28;20412;-75
2023/05/06 07:22:27;;;;;;;0.10;0.10;;;16.20;99.90;;;;;;5052223;28;20044;-75
2023/05/06 07:24:53;;;;;;;0.77;0.77;;;16.60;99.90;;;;;;5031570;28;20037;-76
2023/05/06 07:27:19;;;;;;;0.25;0.25;;;16.60;99.90;;;;;;5052278;28;20096;-74
2023/05/06 07:29:45;;;;;;;0.82;0.82;;;16.60;99.90;;;;;;5051470;28;20362;-75
2023/05/06 07:32:11;;;;;;;0.10;0.10;;;16.70;99.90;;;;;;5052373;28;20374;-76
2023/05/06 07:34:37;;;;;;;0.17;0.17;;;16.60;99.90;;;;;;5052042;28;20083;-75
2023/05/06 07:37:03;;;;;;;0.57;0.57;;;16.70;99.90;;;;;;5055027;28;20512;-72
2023/05/06 07:39:29;;;;;;;0.10;0.10;;;16.90;99.90;;;;;;5055358;28;20029;-74
2023/05/06 07:41:55;;;;;;;0.10;0.10;;;16.90;99.90;;;;;;5055261;28;20551;-75
2023/05/06 07:44:21;;;;;;;0.10;0.10;;;17.30;99.90;;;;;;5033887;28;20021;-75
2023/05/06 07:46:47;;;;;;;0.00;0.00;;;17.50;99.90;;;;;;5048824;28;20195;-75
2023/05/06 07:49:13;;;;;;;0.20;0.20;;;17.40;99.90;;;;;;5055278;28;20025;-75
2023/05/06 07:51:41;;;;;;;0.20;0.20;;;17.40;99.90;;;;;;5034253;28;20125;-76
2023/05/06 07:54:07;;;;;;;0.10;0.10;;;17.90;99.90;;;;;;5034851;28;20025;-75
2023/05/06 07:56:33;;;;;;;0.00;0.00;;;17.70;99.90;;;;;;5055648;28;20032;-75
2023/05/06 07:58:58;;;;;;;0.10;0.10;;;17.90;99.90;;;;;;5054774;28;20428;-74
2023/05/06 08:01:24;;;;;;;0.35;0.35;;;18.30;99.90;;;;;;5055245;28;20492;-75
2023/05/06 08:03:50;;;;;;;0.10;0.10;;;18.50;99.90;;;;;;5055372;28;20477;-75
2023/05/06 08:06:16;;;;;;;0.40;0.40;;;18.80;99.90;;;;;;5054887;28;20132;-75
2023/05/06 08:08:42;;;;;;;0.20;0.20;;;18.60;99.90;;;;;;5055227;28;20053;-75
2023/05/06 08:11:08;;;;;;;0.43;0.43;;;18.50;99.90;;;;;;5054938;28;20025;-74
2023/05/06 08:13:33;;;;;;;0.85;0.50;;;18.50;99.90;;;;;;5054611;28;20033;-75
2023/05/06 08:16:01;;;;;;;0.90;0.85;;;18.30;99.90;;;;;;5033956;28;20017;-75
2023/05/06 08:18:27;;;;;;;1.10;0.98;;;17.80;99.90;;;;;;5052445;28;20037;-74
2023/05/06 08:20:52;;;;;;;0.40;0.38;;;17.70;99.90;;;;;;5054763;28;20039;-70
2023/05/06 08:23:19;;;;;;;0.68;0.57;;;17.90;99.90;;;;;;5054953;28;20497;-74
2023/05/06 08:25:45;;;;;;;0.10;0.10;;;17.90;99.90;;;;;;5054718;28;20025;-76
2023/05/06 08:28:11;;;;;;;4.45;0.47;;;18.00;99.90;;;;;;5054432;28;20025;-75
2023/05/06 08:30:37;;;;;;;0.15;0.15;;;18.30;99.90;;;;;;5054573;28;20024;-76
2023/05/06 08:33:02;;;;;;;0.10;0.10;;;18.40;99.90;;;;;;5054797;28;20032;-76
2023/05/06 08:35:28;;;;;;;2.13;0.45;;;18.70;99.90;;;;;;5033297;28;20409;-75
2023/05/06 08:37:54;;;;;;;0.10;0.10;;;18.80;99.90;;;;;;5044193;28;20584;-75
2023/05/06 08:40:22;;;;;;;2.15;1.17;;;18.70;99.90;;;;;;5046019;28;20064;-75
2023/05/06 08:42:49;;;;;;;1.65;0.32;;;18.50;99.90;;;;;;5049783;28;20032;-75
2023/05/06 08:45:18;;;;;;;0.00;0.00;;;18.60;99.90;;;;;;5048557;28;20060;-75
2023/05/06 08:47:45;;;;;;;3.85;1.92;;;18.50;99.90;;;;;;5053040;28;20025;-76
2023/05/06 08:50:11;;;;;;;3.70;1.10;;;18.30;99.90;;;;;;5054481;28;20444;-75
2023/05/06 08:52:38;;;;;;;0.15;0.15;;;18.40;99.90;;;;;;5054288;28;20049;-75
2023/05/06 08:55:05;;;;;;;0.20;0.20;;;18.40;99.90;;;;;;5069731;28;20025;-75
2023/05/06 08:57:32;;;;;;;1.90;1.80;;;18.70;99.90;;;;;;5053829;28;20074;-76
2023/05/06 08:59:58;;;;;;;0.75;0.75;;;19.10;99.90;;;;;;5053867;28;20047;-76
2023/05/06 09:02:24;;;;;;;1.67;0.45;;;19.20;99.90;;;;;;5053956;28;20350;-75
2023/05/06 09:04:55;;;;;;;1.05;0.85;;;19.20;99.90;;;;;;5054677;28;20032;-71
2023/05/06 09:07:21;;;;;;;9.05;1.25;;;18.80;99.90;;;;;;5053992;28;20039;-70
2023/05/06 09:09:47;;;;;;;0.00;0.00;;;18.50;99.90;;;;;;5053867;28;20127;-71
2023/05/06 09:12:13;;;;;;;0.20;0.20;;;18.60;99.90;;;;;;5049163;28;20486;-70
2023/05/06 09:14:41;;;;;;;1.35;0.98;;;18.60;99.90;;;;;;5060794;28;20478;-70
2023/05/06 09:17:22;;;;;;;1.45;0.25;;;18.60;99.90;;;;;;5053760;28;20086;-71
2023/05/06 09:19:55;;;;;;;0.22;0.22;;;18.80;99.90;;;;;;5053272;28;20124;-70
2023/05/06 09:22:26;;;;;;;3.28;1.20;;;19.00;99.90;;;;;;5048991;28;20029;-71
2023/05/06 09:24:56;;;;;;;4.57;1.50;;;19.40;99.90;;;;;;5046382;28;20389;-70
2023/05/06 09:27:25;;;;;;;0.68;0.68;;;19.60;99.90;;;;;;5053613;28;20029;-71
2023/05/06 09:30:01;;;;;;;1.90;1.10;;;19.20;99.90;;;;;;5049202;28;20374;-69
2023/05/06 09:32:27;;;;;;;1.65;0.65;;;19.20;99.90;;;;;;5049033;28;20040;-70
2023/05/06 09:34:54;;;;;;;1.65;0.77;;;19.30;99.90;;;;;;5046525;28;20033;-70
2023/05/06 09:37:20;;;;;;;0.82;0.80;;;19.50;99.90;;;;;;5053362;28;20074;-71
2023/05/06 09:39:46;;;;;;;0.60;0.60;;;19.70;99.90;;;;;;5052919;28;20049;-70
2023/05/06 09:42:12;;;;;;;1.45;1.35;;;19.90;99.90;;;;;;5053163;28;20404;-70
2023/05/06 09:44:38;;;;;;;0.00;0.00;;;19.80;99.90;;;;;;5032254;28;20481;-70
2023/05/06 09:47:04;;;;;;;1.95;1.45;;;20.10;99.90;;;;;;5030669;28;20048;-71
2023/05/06 09:49:32;;;;;;;0.75;0.38;;;19.90;99.90;;;;;;5053057;28;20365;-70
2023/05/06 09:51:59;;;;;;;1.55;0.70;;;19.70;99.90;;;;;;5052915;28;20029;-75
2023/05/06 09:54:26;;;;;;;8.65;2.28;;;19.90;99.90;;;;;;5052835;28;20025;-75
2023/05/06 09:56:53;;;;;;;1.13;0.82;;;20.00;99.90;;;;;;5053165;28;20155;-76
2023/05/06 09:59:19;;;;;;;1.33;1.15;;;19.80;99.90;;;;;;5052349;28;20048;-76
2023/05/06 10:01:46;;;;;;;1.00;1.00;;;19.80;99.90;;;;;;5052842;28;20048;-76
2023/05/06 10:04:14;;;;;;;0.35;0.35;;;20.20;99.90;;;;;;5052915;28;20473;-76
2023/05/06 10:06:40;;;;;;;2.40;2.20;;;20.40;99.90;;;;;;5053072;28;20381;-76
2023/05/06 10:09:07;;;;;;;0.70;0.47;;;20.60;99.90;;;;;;5052345;28;20021;-74
2023/05/06 10:11:34;;;;;;;0.57;0.57;;;20.80;99.90;;;;;;5052812;28;20059;-75
2023/05/06 10:14:03;;;;;;;2.42;0.80;;;21.00;99.90;;;;;;5052422;28;20039;-75
2023/05/06 10:16:31;;;;;;;0.68;0.68;;;21.00;99.90;;;;;;5052767;28;20044;-76
2023/05/06 10:18:58;;;;;;;0.10;0.08;;;21.00;99.90;;;;;;5052652;28;20478;-70
2023/05/06 10:21:27;;;;;;;0.35;0.22;;;21.30;99.90;;;;;;5052669;28;20040;-76
2023/05/06 10:24:06;;;;;;;0.70;0.50;;;20.90;99.90;;;;;;5052491;28;20514;-75
2023/05/06 10:26:37;;;;;;;1.48;1.02;;;20.70;99.90;;;;;;5034741;28;20470;-74
2023/05/06 10:29:08;;;;;;;0.85;0.85;;;20.50;99.90;;;;;;5014934;28;20104;-74
2023/05/06 10:31:37;;;;;;;4.03;1.10;;;21.00;99.90;;;;;;5046407;28;20500;-74
2023/05/06 10:34:05;;;;;;;4.18;1.55;;;20.80;99.90;;;;;;5052394;28;20060;-74
2023/05/06 10:36:32;;;;;;;0.00;0.00;;;20.40;99.90;;;;;;5052657;28;20033;-75
2023/05/06 10:39:00;;;;;;;0.63;0.63;;;20.50;99.90;;;;;;5051750;28;20035;-75
2023/05/06 10:41:27;;;;;;;0.32;0.32;;;20.70;99.90;;;;;;5052427;28;20021;-74
2023/05/06 10:43:56;;;;;;;0.57;0.50;;;21.00;99.90;;;;;;5052389;28;20009;-71
2023/05/06 10:46:24;;;;;;;0.73;0.73;;;21.30;99.90;;;;;;5051324;28;20068;-74
2023/05/06 10:49:07;;;;;;;0.45;0.45;;;21.10;99.90;;;;;;5052261;28;20389;-73
2023/05/06 10:51:36;;;;;;;0.13;0.13;;;21.10;99.90;;;;;;5014553;28;20430;-76
2023/05/06 10:54:18;;;;;;;0.30;0.20;;;21.40;99.90;;;;;;5031115;28;20040;-74
2023/05/06 10:56:49;;;;;;;9.80;1.00;;;21.20;99.90;;;;;;5031206;28;20037;-75
2023/05/06 10:59:21;;;;;;;0.10;0.10;;;21.30;99.90;;;;;;5031612;28;20056;-75
2023/05/06 11:02:03;;;;;;;1.67;0.65;;;21.70;99.90;;;;;;5052483;28;20431;-74
2023/05/06 11:04:30;;;;;;;0.20;0.20;;;21.70;99.40;;;;;;5052689;28;20351;-75
2023/05/06 11:07:13;;;;;;;0.43;0.22;;;21.40;99.90;;;;;;5034212;28;20366;-73
2023/05/06 11:09:58;;;;;;;0.30;0.30;;;21.00;99.90;;;;;;5051898;28;20029;-75
2023/05/06 11:12:44;;;;;;;0.65;0.57;;;21.00;99.90;;;;;;5055982;28;20065;-75
2023/05/06 11:15:35;;;;;;;0.22;0.20;;;21.40;99.90;;;;;;5055735;28;20021;-74
2023/05/06 11:18:40;;;;;;;0.30;0.30;;;21.40;99.90;;;;;;5056029;28;20032;-74
2023/05/06 11:21:05;;;;;;;2.85;1.42;;;21.40;99.90;;;;;;5055546;28;20040;-73
2023/05/06 11:23:57;;;;;;;1.98;0.13;;;20.80;99.90;;;;;;5055741;28;20044;-75
2023/05/06 11:26:23;;;;;;;1.27;0.55;;;21.10;99.90;;;;;;5049026;28;20045;-74
2023/05/06 11:28:50;;;;;;;0.00;0.00;;;21.50;99.90;;;;;;5037873;28;20025;-75
2023/05/06 11:31:16;;;;;;;0.00;0.00;;;21.80;99.90;;;;;;5055699;28;20071;-75
2023/05/06 11:33:46;;;;;;;0.32;0.32;;;22.20;99.90;;;;;;5055658;28;20044;-74
2023/05/06 11:36:16;;;;;;;0.87;0.47;;;22.30;99.90;;;;;;5055587;28;20108;-74
2023/05/06 11:38:46;;;;;;;0.08;0.08;;;22.20;99.70;;;;;;5036785;28;20121;-75
2023/05/06 11:41:14;;;;;;;0.45;0.45;;;21.90;99.50;;;;;;5055451;28;20059;-75
2023/05/06 11:43:51;;;;;;;0.00;0.00;;;22.10;98.80;;;;;;5055424;28;20048;-74
2023/05/06 11:46:19;;;;;;;0.20;0.10;;;22.10;99.30;;;;;;5055599;28;20416;-75
2023/05/06 11:48:44;;;;;;;0.20;0.20;;;21.90;98.90;;;;;;5037715;28;20114;-74
2023/05/06 11:51:10;;;;;;;0.52;0.52;;;21.60;99.10;;;;;;5037092;28;20017;-75
2023/05/06 11:53:36;;;;;;;1.60;0.82;;;21.50;98.80;;;;;;5055321;28;20137;-75
2023/05/06 11:56:05;;;;;;;1.08;0.35;;;21.40;98.50;;;;;;5055433;28;20388;-74
2023/05/06 11:58:31;;;;;;;1.98;0.90;;;21.70;98.70;;;;;;5055334;28;20117;-75
2023/05/06 12:00:59;;;;;;;0.45;0.32;;;21.60;98.40;;;;;;5055032;28;20040;-75
2023/05/06 12:03:27;;;;;;;6.35;1.05;;;22.30;99.90;;;;;;5055569;28;20120;-74
2023/05/06 12:05:54;;;;;;;0.80;0.10;;;22.10;99.10;;;;;;5054807;28;20385;-73
2023/05/06 12:08:28;;;;;;;0.80;0.20;;;22.60;98.20;;;;;;5055007;28;20028;-75
2023/05/06 12:11:06;;;;;;;0.80;0.38;;;22.40;97.60;;;;;;5055268;28;20033;-74
2023/05/06 12:13:35;;;;;;;0.10;0.10;;;23.20;97.60;;;;;;5055080;28;20036;-76
2023/05/06 12:16:01;;;;;;;0.08;0.08;;;23.90;96.80;;;;;;5054025;28;20057;-76
2023/05/06 12:18:27;;;;;;;0.10;0.10;;;23.20;97.00;;;;;;5033439;28;20068;-74
2023/05/06 12:20:54;;;;;;;3.90;1.02;;;22.70;97.50;;;;;;5044626;28;20033;-75
2023/05/06 12:23:20;;;;;;;1.88;0.65;;;22.80;98.30;;;;;;5054889;28;20060;-74
2023/05/06 12:26:02;;;;;;;7.65;0.80;;;22.60;97.60;;;;;;5054860;28;20025;-74
2023/05/06 12:28:30;;;;;;;0.32;0.32;;;23.00;97.60;;;;;;5054776;28;20033;-71
2023/05/06 12:30:56;;;;;;;1.15;0.15;;;22.90;97.60;;;;;;5054669;28;20029;-71
2023/05/06 12:33:22;;;;;;;1.05;0.73;;;22.50;97.80;;;;;;5054166;28;20036;-75
2023/05/06 12:35:50;;;;;;;0.35;0.25;;;23.00;97.50;;;;;;5054359;28;20033;-71
2023/05/06 12:38:17;;;;;;;0.35;0.35;;;23.00;97.20;;;;;;5054498;28;20118;-72
2023/05/06 12:40:44;;;;;;;0.13;0.13;;;22.90;96.60;;;;;;5054360;28;20036;-71
2023/05/06 12:43:10;;;;;;;1.13;0.50;;;22.90;98.10;;;;;;5054638;28;20017;-70
2023/05/06 12:45:38;;;;;;;0.10;0.10;;;22.70;97.40;;;;;;5054164;28;20047;-72
2023/05/06 12:48:05;;;;;;;0.45;0.45;;;23.00;97.60;;;;;;5054184;28;20116;-73
2023/05/06 12:50:39;;;;;;;0.10;0.10;;;23.70;96.80;;;;;;5054122;28;20465;-74